createdAt,value
2019-03-16T00:15:57.302Z,94198.98
2019-03-16T00:30:53.377Z,94187.59
2019-03-16T00:45:54.795Z,94178.50
2019-03-16T01:30:54.176Z,94154.84
2019-03-16T01:45:53.763Z,94175.09
2019-03-16T02:00:51.820Z,94197.70
2019-03-16T02:16:09.919Z,94183.12
2019-03-16T02:30:54.489Z,94177.87
2019-03-16T02:45:55.456Z,94174.50
2019-03-16T03:00:52.362Z,94165.22
2019-03-16T03:15:56.105Z,94181.64
2019-03-16T03:30:52.442Z,94167.85
2019-03-16T03:45:52.490Z,94173.84
2019-03-16T04:15:56.256Z,94150.70
2019-03-16T04:30:51.664Z,94120.80
2019-03-16T04:45:54.210Z,94103.65
2019-03-16T05:00:52.081Z,94149.66
2019-03-16T05:15:54.415Z,94183.73
2019-03-16T05:30:53.742Z,94193.36
2019-03-16T05:45:51.442Z,94161.95
2019-03-16T06:00:51.381Z,94188.00
2019-03-16T06:15:51.830Z,94231.70
2019-03-16T06:30:51.715Z,94235.20
2019-03-16T06:45:51.645Z,94251.78
2019-03-16T07:00:51.623Z,94223.59
2019-03-16T07:15:51.102Z,94248.80
2019-03-16T07:30:51.046Z,94249.25
2019-03-16T07:45:50.900Z,94235.81
2019-03-16T08:00:50.710Z,94206.63
2019-03-16T08:15:53.095Z,94198.66
2019-03-16T08:45:51.543Z,94177.22
2019-03-16T09:00:50.980Z,94176.65
2019-03-16T09:15:53.843Z,94158.45
2019-03-16T09:30:51.322Z,94135.67
2019-03-16T09:45:51.202Z,94146.83
2019-03-16T10:00:52.901Z,94142.04
2019-03-16T10:15:51.707Z,94122.91
2019-03-16T10:30:51.584Z,94098.81
2019-03-16T10:45:51.614Z,94101.67
2019-03-16T11:00:51.365Z,94076.42
2019-03-16T11:15:50.619Z,94083.78
2019-03-16T11:30:50.432Z,94057.66
2019-03-16T11:45:51.467Z,94059.36
2019-03-16T12:00:51.559Z,94074.69
2019-03-16T12:15:53.091Z,94060.94
2019-03-16T12:30:50.960Z,94069.09
2019-03-16T13:00:50.885Z,94076.75
2019-03-16T13:30:50.979Z,94077.28
2019-03-16T13:45:50.845Z,94089.14
2019-03-16T14:00:50.976Z,94104.94
2019-03-16T14:45:51.307Z,94131.10
2019-03-16T15:15:53.705Z,94133.46
2019-03-16T16:01:03.138Z,94151.69
2019-03-16T16:15:50.835Z,94160.20
2019-03-16T16:30:52.860Z,94176.17
2019-03-16T16:45:57.233Z,94199.07
2019-03-16T17:00:50.865Z,94216.45
2019-03-16T17:15:53.500Z,94221.26
2019-03-16T17:30:53.960Z,94231.46
2019-03-16T17:45:53.335Z,94256.17
2019-03-16T18:15:51.232Z,94301.47
2019-03-16T18:30:54.308Z,94299.96
2019-03-16T18:45:50.959Z,94296.17
2019-03-16T19:00:49.960Z,94318.36
2019-03-16T19:15:50.876Z,94344.10
2019-03-16T19:30:56.400Z,94358.61
2019-03-16T19:45:53.215Z,94352.92
2019-03-16T20:00:53.241Z,94361.84
2019-03-16T20:15:51.057Z,94387.09
2019-03-16T20:30:51.478Z,94386.33
2019-03-16T20:45:52.344Z,94400.18
2019-03-16T21:00:51.406Z,94398.52
2019-03-16T21:15:50.817Z,94402.98
2019-03-16T21:30:53.189Z,94429.80
2019-03-16T21:45:51.246Z,94426.84
2019-03-16T22:00:52.693Z,94432.02
2019-03-16T22:15:52.822Z,94441.34
2019-03-16T22:30:52.656Z,94437.03
2019-03-16T22:45:50.707Z,94444.69
2019-03-16T23:00:50.808Z,94434.48
2019-03-16T23:15:51.029Z,94418.27
2019-03-16T23:30:50.964Z,94437.13
2019-03-16T23:45:51.009Z,94456.17
